Time;durP1;ratioP1;P1;durP2;ratioP2;P2;SDS_P1;SDS_P2;PMS_P1;PMS_P2;Temp;Humidity;BMP_temperature;BMP_pressure;BME280_temperature;BME280_humidity;BME280_pressure;Samples;Min_cycle;Max_cycle;Signal;HPM_P1;HPM_P2
2024/01/26 00:01:47;;;;;;;1.60;1.60;;;;;;;;;;6187032;28;20472;-55
2024/01/26 00:04:51;;;;;;;1.50;1.40;;;;;;;;;;6186470;28;20297;-56
2024/01/26 00:07:55;;;;;;;1.50;1.50;;;;;;;;;;6185973;28;20294;-56
2024/01/26 00:10:59;;;;;;;1.43;1.43;;;;;;;;;;6169112;28;20300;-56
2024/01/26 00:14:05;;;;;;;1.43;1.43;;;;;;;;;;6185856;28;20296;-55
2024/01/26 00:17:09;;;;;;;1.70;1.60;;;;;;;;;;6186091;28;20293;-57
2024/01/26 00:20:13;;;;;;;2.13;2.03;;;;;;;;;;6185921;28;20586;-56
2024/01/26 00:23:17;;;;;;;1.90;1.90;;;;;;;;;;6185758;28;20484;-54
2024/01/26 00:26:21;;;;;;;1.90;1.90;;;;;;;;;;6185979;28;20308;-55
2024/01/26 00:29:26;;;;;;;1.80;1.80;;;;;;;;;;6185438;28;20301;-56
2024/01/26 00:32:30;;;;;;;1.87;1.80;;;;;;;;;;6186858;28;20305;-55
2024/01/26 00:35:34;;;;;;;1.80;1.80;;;;;;;;;;6186180;28;20293;-56
2024/01/26 00:38:38;;;;;;;2.40;2.30;;;;;;;;;;6187769;28;20478;-56
2024/01/26 00:41:42;;;;;;;1.47;1.47;;;;;;;;;;6186098;28;20601;-56
2024/01/26 00:44:47;;;;;;;1.43;1.43;;;;;;;;;;6185699;28;20298;-54
2024/01/26 00:47:51;;;;;;;1.50;1.50;;;;;;;;;;6187684;28;20302;-57
2024/01/26 00:50:55;;;;;;;1.60;1.60;;;;;;;;;;6186387;28;20538;-56
2024/01/26 00:53:59;;;;;;;1.70;1.70;;;;;;;;;;6186179;28;20285;-56
2024/01/26 00:57:04;;;;;;;1.60;1.60;;;;;;;;;;6168551;28;20298;-54
2024/01/26 01:00:10;;;;;;;1.50;1.50;;;;;;;;;;6185640;28;20288;-57
2024/01/26 01:03:14;;;;;;;1.80;1.70;;;;;;;;;;6185264;28;20298;-56
2024/01/26 01:06:19;;;;;;;1.60;1.50;;;;;;;;;;6185860;28;20469;-56
2024/01/26 01:09:24;;;;;;;1.80;1.80;;;;;;;;;;6184720;28;20298;-56
2024/01/26 01:12:28;;;;;;;2.13;2.13;;;;;;;;;;6185531;28;20300;-56
2024/01/26 01:15:34;;;;;;;1.73;1.70;;;;;;;;;;6185088;28;20293;-55
2024/01/26 01:18:38;;;;;;;1.80;1.80;;;;;;;;;;6184824;28;20294;-58
2024/01/26 01:21:42;;;;;;;2.27;2.27;;;;;;;;;;6185501;28;20289;-57
2024/01/26 01:24:46;;;;;;;3.27;3.17;;;;;;;;;;6183784;28;20310;-56
2024/01/26 01:27:50;;;;;;;3.07;2.97;;;;;;;;;;6184828;28;20573;-56
2024/01/26 01:30:55;;;;;;;4.87;4.47;;;;;;;;;;6185420;28;20300;-57
2024/01/26 01:33:59;;;;;;;4.60;4.30;;;;;;;;;;6184359;28;20289;-57
2024/01/26 01:37:05;;;;;;;4.40;4.20;;;;;;;;;;6185571;28;20301;-57
2024/01/26 01:40:09;;;;;;;5.70;5.20;;;;;;;;;;6184485;28;20305;-56
2024/01/26 01:43:17;;;;;;;5.27;4.97;;;;;;;;;;6184240;28;20297;-56
2024/01/26 01:46:22;;;;;;;6.60;4.57;;;;;;;;;;6185061;28;20293;-57
2024/01/26 01:49:26;;;;;;;4.90;4.60;;;;;;;;;;6183688;28;20317;-57
2024/01/26 01:52:30;;;;;;;5.00;4.60;;;;;;;;;;6184840;28;20605;-56
2024/01/26 01:55:34;;;;;;;3.70;3.60;;;;;;;;;;6184411;28;20389;-57
2024/01/26 01:58:39;;;;;;;3.40;3.30;;;;;;;;;;6183933;28;20607;-57
2024/01/26 02:01:44;;;;;;;3.73;3.50;;;;;;;;;;6184554;28;20309;-56
2024/01/26 02:04:48;;;;;;;3.00;2.80;;;;;;;;;;6184282;28;20477;-56
2024/01/26 02:07:53;;;;;;;2.60;2.60;;;;;;;;;;6184175;28;20465;-58
2024/01/26 02:10:57;;;;;;;2.47;2.47;;;;;;;;;;6184659;28;20317;-54
2024/01/26 02:14:01;;;;;;;2.40;2.30;;;;;;;;;;6183954;28;20305;-57
2024/01/26 02:17:06;;;;;;;2.07;2.07;;;;;;;;;;6184155;28;20300;-57
2024/01/26 02:20:10;;;;;;;2.20;2.20;;;;;;;;;;6165647;28;20605;-57
2024/01/26 02:23:23;;;;;;;2.50;2.50;;;;;;;;;;6185126;28;20304;-57
2024/01/26 02:26:27;;;;;;;2.20;2.20;;;;;;;;;;6184336;28;20317;-55
2024/01/26 02:29:31;;;;;;;2.80;2.60;;;;;;;;;;6183845;28;20482;-57
2024/01/26 02:32:35;;;;;;;2.40;2.40;;;;;;;;;;6187965;28;20603;-56
2024/01/26 02:35:39;;;;;;;2.50;2.40;;;;;;;;;;6188788;28;20560;-55
2024/01/26 02:38:46;;;;;;;3.00;2.97;;;;;;;;;;6189338;28;20232;-55
2024/01/26 02:41:50;;;;;;;4.27;4.07;;;;;;;;;;6188734;28;20292;-56
2024/01/26 02:44:54;;;;;;;4.50;4.30;;;;;;;;;;6188379;28;20293;-54
2024/01/26 02:47:58;;;;;;;4.43;4.13;;;;;;;;;;6188166;28;20301;-56
2024/01/26 02:51:03;;;;;;;4.00;3.70;;;;;;;;;;6188563;28;20328;-58
2024/01/26 02:54:08;;;;;;;4.13;3.90;;;;;;;;;;6188349;28;20297;-55
2024/01/26 02:57:12;;;;;;;3.97;3.87;;;;;;;;;;6188559;28;20290;-56
2024/01/26 03:00:17;;;;;;;3.60;3.40;;;;;;;;;;6188268;28;20301;-57
2024/01/26 03:03:21;;;;;;;3.90;3.63;;;;;;;;;;6187647;28;20297;-56
2024/01/26 03:06:25;;;;;;;3.33;3.23;;;;;;;;;;6190626;28;20297;-55
2024/01/26 03:09:31;;;;;;;2.77;2.77;;;;;;;;;;6187210;28;20300;-55
2024/01/26 03:12:35;;;;;;;3.80;3.70;;;;;;;;;;6188481;28;20306;-55
2024/01/26 03:15:38;;;;;;;3.20;3.10;;;;;;;;;;6187350;28;20313;-55
2024/01/26 03:18:42;;;;;;;3.67;3.47;;;;;;;;;;6188043;28;20300;-56
2024/01/26 03:21:47;;;;;;;3.77;3.60;;;;;;;;;;6187962;28;20297;-55
2024/01/26 03:24:52;;;;;;;4.97;4.70;;;;;;;;;;6187731;28;20533;-55
2024/01/26 03:27:56;;;;;;;5.40;5.00;;;;;;;;;;6187949;28;20293;-57
2024/01/26 03:31:00;;;;;;;4.77;4.37;;;;;;;;;;6170500;28;20299;-56
2024/01/26 03:34:04;;;;;;;4.83;3.77;;;;;;;;;;6187504;28;20313;-55
2024/01/26 03:37:08;;;;;;;3.67;3.57;;;;;;;;;;6187764;28;20297;-57
2024/01/26 03:40:15;;;;;;;5.43;4.20;;;;;;;;;;6187062;28;20297;-56
2024/01/26 03:43:18;;;;;;;3.13;3.03;;;;;;;;;;6185005;28;20404;-55
2024/01/26 03:46:22;;;;;;;3.70;3.60;;;;;;;;;;6187669;28;20405;-55
2024/01/26 03:49:26;;;;;;;3.60;3.40;;;;;;;;;;6186855;28;20254;-56
2024/01/26 03:52:30;;;;;;;3.80;3.60;;;;;;;;;;6187076;28;20602;-54
2024/01/26 03:55:37;;;;;;;4.47;4.17;;;;;;;;;;6187208;28;20304;-57
2024/01/26 03:58:41;;;;;;;3.63;3.47;;;;;;;;;;6188966;28;20296;-55
2024/01/26 04:01:45;;;;;;;3.50;3.40;;;;;;;;;;6186597;28;20292;-56
2024/01/26 04:04:49;;;;;;;3.33;3.20;;;;;;;;;;6186751;28;20449;-57
2024/01/26 04:07:53;;;;;;;3.50;3.40;;;;;;;;;;6169105;28;20312;-56
2024/01/26 04:10:58;;;;;;;3.50;3.40;;;;;;;;;;6186666;28;20302;-55
2024/01/26 04:14:02;;;;;;;3.77;3.63;;;;;;;;;;6186616;28;20301;-56
2024/01/26 04:17:06;;;;;;;3.93;3.60;;;;;;;;;;6186844;28;20301;-56
2024/01/26 04:20:11;;;;;;;3.40;3.30;;;;;;;;;;6186079;28;20300;-56
2024/01/26 04:23:15;;;;;;;3.97;3.70;;;;;;;;;;6185977;28;20296;-53
2024/01/26 04:26:20;;;;;;;3.90;3.80;;;;;;;;;;6186542;28;20297;-55
2024/01/26 04:29:24;;;;;;;3.70;3.60;;;;;;;;;;6169468;28;20302;-56
2024/01/26 04:32:29;;;;;;;3.60;3.40;;;;;;;;;;6162031;29;20314;-56
2024/01/26 04:35:33;;;;;;;3.40;3.30;;;;;;;;;;6162876;29;20310;-54
2024/01/26 04:38:37;;;;;;;3.70;3.60;;;;;;;;;;6162472;28;20305;-54
2024/01/26 04:41:43;;;;;;;3.87;3.67;;;;;;;;;;6177193;28;20586;-55
2024/01/26 04:44:47;;;;;;;3.83;3.73;;;;;;;;;;6161904;28;20618;-57
2024/01/26 04:47:51;;;;;;;4.13;3.93;;;;;;;;;;6162313;28;20297;-55
2024/01/26 04:50:55;;;;;;;3.80;3.70;;;;;;;;;;6162744;28;20290;-58
2024/01/26 04:53:59;;;;;;;4.00;3.90;;;;;;;;;;6161532;28;20309;-54
2024/01/26 04:57:05;;;;;;;3.97;3.87;;;;;;;;;;6162409;28;20297;-55
2024/01/26 05:00:10;;;;;;;3.77;3.67;;;;;;;;;;6161961;28;20297;-55
2024/01/26 05:03:15;;;;;;;5.10;4.80;;;;;;;;;;6161411;28;20297;-57
2024/01/26 05:06:19;;;;;;;4.77;4.50;;;;;;;;;;6161978;28;20353;-57
2024/01/26 05:09:23;;;;;;;5.07;4.63;;;;;;;;;;6160874;28;20306;-54
2024/01/26 05:12:28;;;;;;;5.30;4.90;;;;;;;;;;6185577;28;20552;-57
2024/01/26 05:15:32;;;;;;;4.30;4.20;;;;;;;;;;6185658;28;20584;-55
2024/01/26 05:18:36;;;;;;;4.17;4.03;;;;;;;;;;6185121;28;20250;-55
2024/01/26 05:21:41;;;;;;;4.47;4.10;;;;;;;;;;6185618;28;20292;-56
2024/01/26 05:24:45;;;;;;;3.97;3.87;;;;;;;;;;6184942;28;20300;-56
2024/01/26 05:27:51;;;;;;;3.43;3.33;;;;;;;;;;6184989;28;20320;-56
2024/01/26 05:30:54;;;;;;;3.53;3.33;;;;;;;;;;6185343;28;20309;-57
2024/01/26 05:33:58;;;;;;;3.00;2.90;;;;;;;;;;6184795;28;20301;-57
2024/01/26 05:37:03;;;;;;;2.90;2.80;;;;;;;;;;6185507;28;20298;-56
2024/01/26 05:40:08;;;;;;;2.70;2.70;;;;;;;;;;6184825;28;20305;-57
2024/01/26 05:43:14;;;;;;;2.80;2.80;;;;;;;;;;6184209;28;20431;-56
2024/01/26 05:46:18;;;;;;;2.77;2.77;;;;;;;;;;6184816;28;20301;-57
2024/01/26 05:49:23;;;;;;;3.47;3.37;;;;;;;;;;6173801;28;20302;-54
2024/01/26 05:52:28;;;;;;;3.10;3.10;;;;;;;;;;6184169;28;20300;-58
2024/01/26 05:55:31;;;;;;;2.87;2.83;;;;;;;;;;6184590;28;20293;-56
2024/01/26 05:58:37;;;;;;;2.77;2.77;;;;;;;;;;6184610;28;20313;-57
2024/01/26 06:01:41;;;;;;;2.90;2.80;;;;;;;;;;6184881;28;20448;-56
2024/01/26 06:04:45;;;;;;;3.07;2.97;;;;;;;;;;6184211;28;20473;-56
2024/01/26 06:07:49;;;;;;;3.23;3.13;;;;;;;;;;6183473;28;20540;-55
2024/01/26 06:10:53;;;;;;;3.07;2.97;;;;;;;;;;6184663;28;20296;-55
2024/01/26 06:13:58;;;;;;;3.07;3.07;;;;;;;;;;6184178;28;20304;-56
2024/01/26 06:17:02;;;;;;;3.40;3.20;;;;;;;;;;6184635;28;20293;-56
2024/01/26 06:20:07;;;;;;;3.30;3.10;;;;;;;;;;6183928;28;20456;-55
2024/01/26 06:23:11;;;;;;;3.33;3.20;;;;;;;;;;6183459;28;20601;-56
2024/01/26 06:26:15;;;;;;;2.97;2.97;;;;;;;;;;6166086;28;20301;-57
2024/01/26 06:29:21;;;;;;;3.00;3.00;;;;;;;;;;6183551;28;20305;-56
2024/01/26 06:32:25;;;;;;;3.07;2.80;;;;;;;;;;6184235;28;20293;-55
2024/01/26 06:35:29;;;;;;;2.60;2.50;;;;;;;;;;6183714;28;20324;-54
2024/01/26 06:38:33;;;;;;;2.53;2.53;;;;;;;;;;6183317;28;20310;-54
2024/01/26 06:41:42;;;;;;;2.37;2.37;;;;;;;;;;6184203;28;20313;-55
2024/01/26 06:44:47;;;;;;;2.90;2.80;;;;;;;;;;6183793;28;20301;-56
2024/01/26 06:47:51;;;;;;;2.30;2.30;;;;;;;;;;6183256;28;20297;-55
2024/01/26 06:50:55;;;;;;;2.53;2.53;;;;;;;;;;6183895;28;20298;-55
2024/01/26 06:54:01;;;;;;;2.80;2.70;;;;;;;;;;6183684;28;20297;-54
2024/01/26 06:57:05;;;;;;;2.90;2.70;;;;;;;;;;6184168;28;20310;-55
2024/01/26 07:00:12;;;;;;;3.17;2.70;;;;;;;;;;6183715;28;20305;-58
2024/01/26 07:03:17;;;;;;;3.00;2.90;;;;;;;;;;6183483;28;20414;-56
2024/01/26 07:06:21;;;;;;;3.17;2.87;;;;;;;;;;6185972;28;20594;-57
2024/01/26 07:09:25;;;;;;;3.23;3.03;;;;;;;;;;6183608;28;20304;-59
2024/01/26 07:12:29;;;;;;;3.13;2.67;;;;;;;;;;6183660;28;20592;-57
2024/01/26 07:15:35;;;;;;;2.27;2.27;;;;;;;;;;6184494;28;20294;-56
2024/01/26 07:18:39;;;;;;;2.77;2.57;;;;;;;;;;6186794;28;20299;-54
2024/01/26 07:21:43;;;;;;;2.50;2.50;;;;;;;;;;6178166;28;20470;-56
2024/01/26 07:24:47;;;;;;;2.60;2.60;;;;;;;;;;6169640;28;20370;-57
2024/01/26 07:27:51;;;;;;;2.13;2.13;;;;;;;;;;6140503;28;20500;-57
2024/01/26 07:30:56;;;;;;;2.20;2.20;;;;;;;;;;6140901;28;20314;-57
2024/01/26 07:34:00;;;;;;;2.10;2.10;;;;;;;;;;6140137;28;20378;-56
2024/01/26 07:37:05;;;;;;;2.30;2.13;;;;;;;;;;6140571;28;20303;-54
2024/01/26 07:40:10;;;;;;;2.80;2.60;;;;;;;;;;6140074;28;20299;-56
2024/01/26 07:43:13;;;;;;;2.40;2.30;;;;;;;;;;6139609;28;20314;-56
2024/01/26 07:46:19;;;;;;;1.90;1.90;;;;;;;;;;6138818;28;20420;-57
2024/01/26 07:49:23;;;;;;;2.10;2.10;;;;;;;;;;6139617;28;20298;-55
2024/01/26 07:52:27;;;;;;;2.07;2.07;;;;;;;;;;6137828;28;20298;-57
2024/01/26 07:55:32;;;;;;;2.20;2.20;;;;;;;;;;6139345;28;20295;-54
2024/01/26 07:58:35;;;;;;;2.20;2.10;;;;;;;;;;6139392;28;20303;-56
2024/01/26 08:01:41;;;;;;;1.60;1.60;;;;;;;;;;6140337;28;20291;-56
2024/01/26 08:04:45;;;;;;;1.57;1.57;;;;;;;;;;6140355;28;20295;-56
2024/01/26 08:07:49;;;;;;;1.70;1.70;;;;;;;;;;6139461;28;20290;-55
2024/01/26 08:10:54;;;;;;;1.40;1.40;;;;;;;;;;6150671;28;20447;-56
2024/01/26 08:13:58;;;;;;;1.40;1.30;;;;;;;;;;6162954;28;20290;-57
2024/01/26 08:17:04;;;;;;;1.67;1.67;;;;;;;;;;6163311;28;20302;-58
2024/01/26 08:20:09;;;;;;;1.60;1.60;;;;;;;;;;6162768;28;20305;-58
2024/01/26 08:23:16;;;;;;;1.53;1.53;;;;;;;;;;6172009;28;20475;-58
2024/01/26 08:26:19;;;;;;;1.40;1.40;;;;;;;;;;6187067;28;20305;-57
2024/01/26 08:29:26;;;;;;;1.10;1.10;;;;;;;;;;6185390;28;20310;-56
2024/01/26 08:32:31;;;;;;;1.30;1.30;;;;;;;;;;6186460;28;20294;-56
2024/01/26 08:35:36;;;;;;;1.20;1.20;;;;;;;;;;6186572;28;20365;-55
2024/01/26 08:38:41;;;;;;;1.20;1.20;;;;;;;;;;6186224;28;20301;-54
2024/01/26 08:41:46;;;;;;;1.23;1.13;;;;;;;;;;6187203;28;20305;-56
2024/01/26 08:44:50;;;;;;;1.30;1.20;;;;;;;;;;6186013;28;20293;-56
2024/01/26 08:47:56;;;;;;;1.20;1.20;;;;;;;;;;6185918;28;20293;-55
2024/01/26 08:51:00;;;;;;;1.00;1.00;;;;;;;;;;6186340;28;20289;-56
2024/01/26 08:54:04;;;;;;;1.80;1.20;;;;;;;;;;6186060;28;20301;-54
2024/01/26 08:57:08;;;;;;;0.90;0.90;;;;;;;;;;6186306;28;20297;-56
2024/01/26 09:00:14;;;;;;;0.90;0.90;;;;;;;;;;6185874;28;20253;-55
2024/01/26 09:03:20;;;;;;;0.90;0.90;;;;;;;;;;6185156;28;20301;-55
2024/01/26 09:06:24;;;;;;;0.93;0.93;;;;;;;;;;6185382;28;20487;-55
2024/01/26 09:09:29;;;;;;;1.00;1.00;;;;;;;;;;6185186;28;20290;-56
2024/01/26 09:12:34;;;;;;;1.00;1.00;;;;;;;;;;6185392;28;20315;-55
2024/01/26 09:15:37;;;;;;;0.80;0.80;;;;;;;;;;6185857;28;20294;-56
2024/01/26 09:18:43;;;;;;;0.80;0.80;;;;;;;;;;6185367;28;20314;-56
2024/01/26 09:21:47;;;;;;;1.00;1.00;;;;;;;;;;6185684;28;20294;-55
2024/01/26 09:24:52;;;;;;;0.87;0.87;;;;;;;;;;6184761;28;20317;-56
2024/01/26 09:27:56;;;;;;;0.83;0.83;;;;;;;;;;6184992;28;20662;-57
2024/01/26 09:31:00;;;;;;;1.00;1.00;;;;;;;;;;6185722;28;20305;-55
2024/01/26 09:34:06;;;;;;;1.10;1.10;;;;;;;;;;6185125;28;20297;-57
2024/01/26 09:37:11;;;;;;;0.90;0.90;;;;;;;;;;6185412;28;20474;-56
2024/01/26 09:40:15;;;;;;;0.90;0.90;;;;;;;;;;6184895;28;20353;-55
2024/01/26 09:43:19;;;;;;;0.97;0.97;;;;;;;;;;6184243;28;20302;-56
2024/01/26 09:46:23;;;;;;;0.97;0.97;;;;;;;;;;6185158;28;20293;-58
2024/01/26 09:49:29;;;;;;;0.87;0.87;;;;;;;;;;6184774;28;20294;-56
2024/01/26 09:52:35;;;;;;;1.20;1.10;;;;;;;;;;6185196;28;20450;-56
2024/01/26 09:55:40;;;;;;;1.10;1.10;;;;;;;;;;6184693;28;20297;-57
2024/01/26 09:58:44;;;;;;;0.97;0.97;;;;;;;;;;6183996;28;20303;-55
2024/01/26 10:01:49;;;;;;;1.00;1.00;;;;;;;;;;6183922;28;20561;-58
2024/01/26 10:04:54;;;;;;;1.10;1.10;;;;;;;;;;6178348;28;20300;-58
2024/01/26 10:07:58;;;;;;;1.20;1.20;;;;;;;;;;6184333;28;20291;-57
2024/01/26 10:11:02;;;;;;;0.90;0.90;;;;;;;;;;6184862;28;20290;-58
2024/01/26 10:14:06;;;;;;;3.90;1.00;;;;;;;;;;6184579;28;20345;-58
2024/01/26 10:17:17;;;;;;;1.13;1.03;;;;;;;;;;6184617;28;20608;-57
2024/01/26 10:20:22;;;;;;;0.80;0.80;;;;;;;;;;6184011;28;20426;-55
2024/01/26 10:23:26;;;;;;;1.00;1.00;;;;;;;;;;6183860;28;20296;-54
2024/01/26 10:26:30;;;;;;;1.03;1.03;;;;;;;;;;6184599;28;20292;-54
2024/01/26 10:29:35;;;;;;;1.20;1.20;;;;;;;;;;6184312;28;20307;-55
2024/01/26 10:32:39;;;;;;;1.00;1.00;;;;;;;;;;6185584;28;20307;-55
2024/01/26 10:35:46;;;;;;;0.97;0.97;;;;;;;;;;6184253;28;20318;-57
2024/01/26 10:38:51;;;;;;;1.00;1.00;;;;;;;;;;6183725;28;20295;-56
2024/01/26 10:42:03;;;;;;;1.00;1.00;;;;;;;;;;6184375;28;20288;-55
2024/01/26 10:45:10;;;;;;;1.10;0.93;;;;;;;;;;6172013;28;20301;-55
2024/01/26 10:48:17;;;;;;;0.83;0.83;;;;;;;;;;6184609;28;20297;-56
2024/01/26 10:51:23;;;;;;;0.90;0.90;;;;;;;;;;6185352;28;20293;-56
2024/01/26 10:54:28;;;;;;;0.80;0.80;;;;;;;;;;6170340;28;20297;-56
2024/01/26 10:57:32;;;;;;;1.00;0.80;;;;;;;;;;6188536;28;20503;-56
2024/01/26 11:00:36;;;;;;;0.80;0.80;;;;;;;;;;6188900;28;20492;-57
2024/01/26 11:03:40;;;;;;;1.33;0.97;;;;;;;;;;6188464;28;20297;-57
2024/01/26 11:06:46;;;;;;;1.93;1.00;;;;;;;;;;6189097;28;20451;-56
2024/01/26 11:09:51;;;;;;;0.90;0.90;;;;;;;;;;6188703;28;20369;-55
2024/01/26 11:13:03;;;;;;;1.13;0.70;;;;;;;;;;6188207;28;20295;-57
2024/01/26 11:16:08;;;;;;;2.00;1.00;;;;;;;;;;6188628;28;20289;-56
2024/01/26 11:19:22;;;;;;;0.80;0.80;;;;;;;;;;6187949;28;20294;-57
2024/01/26 11:22:33;;;;;;;1.10;1.10;;;;;;;;;;6187490;28;20316;-59
2024/01/26 11:25:39;;;;;;;0.80;0.80;;;;;;;;;;6188742;28;20301;-56
2024/01/26 11:28:45;;;;;;;0.80;0.80;;;;;;;;;;6187831;28;20489;-58
2024/01/26 11:31:50;;;;;;;3.90;1.10;;;;;;;;;;6188619;28;20475;-58
2024/01/26 11:35:06;;;;;;;0.83;0.83;;;;;;;;;;6187401;28;20298;-54
2024/01/26 11:38:12;;;;;;;5.10;0.87;;;;;;;;;;6187735;28;20304;-56
2024/01/26 11:41:16;;;;;;;0.80;0.80;;;;;;;;;;6188259;28;20290;-57
2024/01/26 11:44:21;;;;;;;3.63;1.00;;;;;;;;;;6187821;28;20295;-55
2024/01/26 11:47:28;;;;;;;0.83;0.83;;;;;;;;;;6187907;28;20333;-58
2024/01/26 11:50:32;;;;;;;0.80;0.80;;;;;;;;;;6170052;28;20293;-57
2024/01/26 11:53:38;;;;;;;0.90;0.90;;;;;;;;;;6170300;28;20293;-57
2024/01/26 11:56:43;;;;;;;0.80;0.80;;;;;;;;;;6187932;28;20301;-57
2024/01/26 11:59:48;;;;;;;0.93;0.93;;;;;;;;;;6187549;28;20302;-57
2024/01/26 12:02:52;;;;;;;1.00;1.00;;;;;;;;;;6187684;28;20296;-57
2024/01/26 12:05:56;;;;;;;0.90;0.90;;;;;;;;;;6186738;28;20588;-57
2024/01/26 12:09:02;;;;;;;1.00;1.00;;;;;;;;;;6186981;28;20285;-56
2024/01/26 12:12:08;;;;;;;0.90;0.90;;;;;;;;;;6187750;28;20296;-59
2024/01/26 12:15:13;;;;;;;0.87;0.87;;;;;;;;;;6186855;28;20290;-58
2024/01/26 12:18:18;;;;;;;0.83;0.83;;;;;;;;;;6186991;28;20300;-55
2024/01/26 12:21:22;;;;;;;0.97;0.97;;;;;;;;;;6186876;28;20305;-57
2024/01/26 12:24:28;;;;;;;0.80;0.80;;;;;;;;;;6186626;28;20400;-56
2024/01/26 12:27:32;;;;;;;2.03;0.97;;;;;;;;;;6186651;28;20298;-57
2024/01/26 12:30:36;;;;;;;1.33;0.90;;;;;;;;;;6187154;28;20614;-59
2024/01/26 12:33:40;;;;;;;0.90;0.90;;;;;;;;;;6186405;28;20612;-56
2024/01/26 12:36:44;;;;;;;1.73;1.00;;;;;;;;;;6187110;28;20289;-55
2024/01/26 12:39:50;;;;;;;1.00;1.00;;;;;;;;;;6188562;28;20305;-57
2024/01/26 12:42:54;;;;;;;1.10;1.10;;;;;;;;;;6186914;28;20296;-56
2024/01/26 12:45:58;;;;;;;1.00;1.00;;;;;;;;;;6187041;28;20292;-55
2024/01/26 12:49:02;;;;;;;1.33;1.10;;;;;;;;;;6186253;28;20293;-53
2024/01/26 12:52:07;;;;;;;1.30;1.30;;;;;;;;;;6186328;28;20386;-56
2024/01/26 12:55:12;;;;;;;1.20;1.20;;;;;;;;;;6177746;28;20539;-53
2024/01/26 12:58:17;;;;;;;1.30;1.30;;;;;;;;;;6186227;28;20304;-55
2024/01/26 13:01:22;;;;;;;1.63;1.30;;;;;;;;;;6187920;28;20434;-56
2024/01/26 13:04:26;;;;;;;1.10;1.10;;;;;;;;;;6185848;28;20315;-55
2024/01/26 13:07:32;;;;;;;1.30;1.30;;;;;;;;;;6185674;28;20298;-56
2024/01/26 13:10:38;;;;;;;1.53;1.53;;;;;;;;;;6185922;28;20293;-56
2024/01/26 13:13:42;;;;;;;1.30;1.30;;;;;;;;;;6185495;28;20293;-55
2024/01/26 13:16:46;;;;;;;1.43;1.33;;;;;;;;;;6185936;28;20464;-56
2024/01/26 13:19:50;;;;;;;1.40;1.40;;;;;;;;;;6185794;28;20611;-56
2024/01/26 13:23:07;;;;;;;1.20;1.20;;;;;;;;;;6185219;28;20553;-58
2024/01/26 13:26:13;;;;;;;1.43;1.37;;;;;;;;;;6185849;28;20321;-56
2024/01/26 13:29:17;;;;;;;1.30;1.30;;;;;;;;;;6185121;28;20297;-54
2024/01/26 13:32:21;;;;;;;1.70;1.53;;;;;;;;;;6185848;28;20292;-53
2024/01/26 13:35:25;;;;;;;1.43;1.43;;;;;;;;;;6185072;28;20287;-56
2024/01/26 13:38:31;;;;;;;1.67;1.57;;;;;;;;;;6185160;28;20304;-55
2024/01/26 13:41:38;;;;;;;1.73;1.67;;;;;;;;;;6185652;28;20300;-55
2024/01/26 13:44:44;;;;;;;1.63;1.57;;;;;;;;;;6184784;28;20305;-57
2024/01/26 13:47:48;;;;;;;2.90;1.50;;;;;;;;;;6185129;28;20296;-56
2024/01/26 13:51:00;;;;;;;1.83;1.67;;;;;;;;;;6185519;28;20306;-57
2024/01/26 13:54:04;;;;;;;1.60;1.60;;;;;;;;;;6184852;28;20526;-57
2024/01/26 13:57:09;;;;;;;1.67;1.57;;;;;;;;;;6185329;28;20553;-56
2024/01/26 14:00:15;;;;;;;1.67;1.67;;;;;;;;;;6184532;28;20300;-56
2024/01/26 14:03:25;;;;;;;1.73;1.73;;;;;;;;;;6183805;28;20315;-56
2024/01/26 14:06:29;;;;;;;1.70;1.70;;;;;;;;;;6184880;28;20380;-56
2024/01/26 14:09:37;;;;;;;1.60;1.60;;;;;;;;;;6182562;28;20301;-57
2024/01/26 14:12:43;;;;;;;2.30;2.00;;;;;;;;;;6160300;28;20534;-57
2024/01/26 14:15:46;;;;;;;2.40;2.30;;;;;;;;;;6161171;28;20294;-55
2024/01/26 14:18:50;;;;;;;1.60;1.60;;;;;;;;;;6160797;28;20301;-54
2024/01/26 14:21:55;;;;;;;1.60;1.60;;;;;;;;;;6161076;28;20292;-56
2024/01/26 14:25:00;;;;;;;1.83;1.83;;;;;;;;;;6163218;28;20297;-55
2024/01/26 14:28:08;;;;;;;2.03;1.80;;;;;;;;;;6183786;28;20306;-56
2024/01/26 14:31:11;;;;;;;1.90;1.90;;;;;;;;;;6184735;28;20540;-56
2024/01/26 14:34:15;;;;;;;2.53;2.33;;;;;;;;;;6184326;28;20368;-57
2024/01/26 14:37:20;;;;;;;2.40;2.40;;;;;;;;;;6184706;28;20585;-55
2024/01/26 14:40:24;;;;;;;2.37;2.33;;;;;;;;;;6166446;28;20324;-55
2024/01/26 14:43:29;;;;;;;5.57;3.00;;;;;;;;;;6184034;28;20314;-58
2024/01/26 14:46:35;;;;;;;2.80;2.70;;;;;;;;;;6184558;28;20296;-55
2024/01/26 14:49:40;;;;;;;3.30;3.10;;;;;;;;;;6183848;28;20313;-57
2024/01/26 14:52:45;;;;;;;3.87;3.57;;;;;;;;;;6183745;28;20300;-56
2024/01/26 14:55:49;;;;;;;3.90;3.70;;;;;;;;;;6184687;28;20317;-56
2024/01/26 14:58:55;;;;;;;3.70;3.50;;;;;;;;;;6184376;28;20583;-58
2024/01/26 15:01:59;;;;;;;4.33;3.97;;;;;;;;;;6184894;28;20347;-54
2024/01/26 15:05:03;;;;;;;4.53;4.13;;;;;;;;;;6184105;28;20296;-54
2024/01/26 15:08:08;;;;;;;4.37;4.20;;;;;;;;;;6183960;28;20300;-55
2024/01/26 15:11:12;;;;;;;4.73;4.43;;;;;;;;;;6169582;28;20289;-57
2024/01/26 15:14:18;;;;;;;6.00;4.47;;;;;;;;;;6159728;28;20298;-57
2024/01/26 15:17:23;;;;;;;4.20;4.10;;;;;;;;;;6160491;28;20298;-55
2024/01/26 15:20:27;;;;;;;4.87;4.47;;;;;;;;;;6159627;28;20262;-57
2024/01/26 15:23:31;;;;;;;4.47;4.20;;;;;;;;;;6159345;28;20306;-56
2024/01/26 15:26:35;;;;;;;4.63;4.13;;;;;;;;;;6175930;28;20374;-55
2024/01/26 15:29:40;;;;;;;4.70;4.40;;;;;;;;;;6185312;28;20294;-56
2024/01/26 15:32:44;;;;;;;5.60;4.70;;;;;;;;;;6166297;28;20294;-56
2024/01/26 15:35:49;;;;;;;4.77;4.40;;;;;;;;;;6183183;28;20302;-58
2024/01/26 15:38:52;;;;;;;5.23;4.77;;;;;;;;;;6185383;28;20320;-57
2024/01/26 15:41:57;;;;;;;4.60;4.30;;;;;;;;;;6188477;28;20294;-55
2024/01/26 15:45:02;;;;;;;4.77;4.57;;;;;;;;;;6187794;28;20311;-55
2024/01/26 15:48:07;;;;;;;5.40;4.93;;;;;;;;;;6188139;28;20308;-56
2024/01/26 15:51:11;;;;;;;5.20;4.73;;;;;;;;;;6188395;28;20582;-55
2024/01/26 15:54:16;;;;;;;5.00;4.60;;;;;;;;;;6187506;28;20314;-57
2024/01/26 15:57:20;;;;;;;5.07;4.57;;;;;;;;;;6188164;28;20312;-58
2024/01/26 16:00:25;;;;;;;5.70;5.30;;;;;;;;;;6187100;28;20307;-57
2024/01/26 16:03:29;;;;;;;6.27;5.50;;;;;;;;;;6187249;28;20428;-56
2024/01/26 16:06:33;;;;;;;4.93;4.63;;;;;;;;;;6187881;28;20300;-54
2024/01/26 16:09:39;;;;;;;5.23;4.83;;;;;;;;;;6184865;28;20295;-56
2024/01/26 16:12:43;;;;;;;5.13;4.73;;;;;;;;;;6163030;28;20300;-59
2024/01/26 16:15:49;;;;;;;5.07;4.77;;;;;;;;;;6164311;28;20295;-55
2024/01/26 16:18:53;;;;;;;7.23;4.33;;;;;;;;;;6162916;28;20297;-57
2024/01/26 16:21:58;;;;;;;5.23;4.73;;;;;;;;;;6163522;28;20382;-55
2024/01/26 16:25:02;;;;;;;5.03;4.73;;;;;;;;;;6166292;28;20301;-59
2024/01/26 16:28:06;;;;;;;4.43;4.27;;;;;;;;;;6186093;28;20317;-56
2024/01/26 16:31:13;;;;;;;4.80;4.50;;;;;;;;;;6146216;29;20300;-57
2024/01/26 16:34:16;;;;;;;5.37;4.97;;;;;;;;;;6162545;29;20290;-58
2024/01/26 16:37:21;;;;;;;4.90;4.60;;;;;;;;;;6162969;29;20301;-59
2024/01/26 16:40:26;;;;;;;4.83;4.43;;;;;;;;;;6162442;29;20353;-56
2024/01/26 16:43:30;;;;;;;5.13;4.83;;;;;;;;;;6162561;29;20495;-58
2024/01/26 16:46:37;;;;;;;5.50;5.20;;;;;;;;;;6162576;29;20298;-57
2024/01/26 16:49:41;;;;;;;5.57;4.50;;;;;;;;;;6161451;28;20361;-57
2024/01/26 16:52:45;;;;;;;5.13;4.80;;;;;;;;;;6162111;29;20258;-56
2024/01/26 16:55:49;;;;;;;5.33;4.93;;;;;;;;;;6162672;29;20294;-58
2024/01/26 16:58:53;;;;;;;5.33;5.10;;;;;;;;;;6161903;28;20293;-56
2024/01/26 17:01:58;;;;;;;4.50;4.20;;;;;;;;;;6162654;29;20433;-57
2024/01/26 17:05:02;;;;;;;5.10;4.87;;;;;;;;;;6161986;29;20293;-58
2024/01/26 17:08:07;;;;;;;4.40;4.23;;;;;;;;;;6161774;28;20297;-56
2024/01/26 17:11:11;;;;;;;5.10;4.67;;;;;;;;;;6177155;28;20327;-55
2024/01/26 17:14:15;;;;;;;4.40;4.20;;;;;;;;;;6185459;28;20304;-56
2024/01/26 17:17:21;;;;;;;4.23;4.00;;;;;;;;;;6186352;28;20293;-57
2024/01/26 17:20:25;;;;;;;4.17;3.80;;;;;;;;;;6185701;28;20302;-56
2024/01/26 17:23:29;;;;;;;4.40;4.10;;;;;;;;;;6185759;28;20305;-57
2024/01/26 17:26:33;;;;;;;3.70;3.60;;;;;;;;;;6185863;28;20289;-55
2024/01/26 17:29:37;;;;;;;3.83;3.67;;;;;;;;;;6185157;28;20293;-56
2024/01/26 17:32:42;;;;;;;3.93;3.60;;;;;;;;;;6184973;28;20309;-58
2024/01/26 17:35:46;;;;;;;2.83;2.83;;;;;;;;;;6185594;28;20302;-55
2024/01/26 17:38:50;;;;;;;3.83;3.20;;;;;;;;;;6185189;28;20468;-57
2024/01/26 17:41:56;;;;;;;3.83;3.20;;;;;;;;;;6185819;28;20301;-55
2024/01/26 17:45:00;;;;;;;3.07;2.90;;;;;;;;;;6184956;28;20301;-54
2024/01/26 17:48:06;;;;;;;3.07;3.00;;;;;;;;;;6184655;28;20293;-56
2024/01/26 17:51:10;;;;;;;3.00;2.67;;;;;;;;;;6185188;28;20321;-55
2024/01/26 17:54:14;;;;;;;2.80;2.80;;;;;;;;;;6185134;28;20306;-57
2024/01/26 17:57:18;;;;;;;2.50;2.40;;;;;;;;;;6186421;28;20298;-57
2024/01/26 18:00:22;;;;;;;2.40;2.20;;;;;;;;;;6184245;28;20302;-58
2024/01/26 18:03:28;;;;;;;2.50;2.30;;;;;;;;;;6183502;28;20289;-57
2024/01/26 18:06:32;;;;;;;2.53;2.43;;;;;;;;;;6185231;28;20308;-55
2024/01/26 18:09:35;;;;;;;2.00;2.00;;;;;;;;;;6182732;28;20449;-58
2024/01/26 18:12:39;;;;;;;1.93;1.93;;;;;;;;;;6143217;28;20466;-58
2024/01/26 18:15:43;;;;;;;1.80;1.80;;;;;;;;;;6161078;28;20290;-57
2024/01/26 18:18:49;;;;;;;2.00;2.00;;;;;;;;;;6160346;28;20582;-54
2024/01/26 18:21:57;;;;;;;1.80;1.80;;;;;;;;;;6159466;28;20305;-55
2024/01/26 18:25:02;;;;;;;1.80;1.53;;;;;;;;;;6163956;28;20290;-59
2024/01/26 18:28:07;;;;;;;1.70;1.70;;;;;;;;;;6184712;28;20303;-56